Hays, KS (67601)

11:32 PM CDT on July 29, 2016 (GMT -0500)
Rural Ellis Co. | | Change Station

Elev 2077 ft 38.81 °N, 99.37 °W | Updated 4 minutes ago

Partly Cloudy
Partly Cloudy
72.3 °F
Feels Like 72 °F
N
3.7
Wind Variable Wind from NE

Today
High -- | Low -- °F
--% Chance of Precip.
Yesterday
High -- | Low -- °F
Precip. -- in
Pressure 30.05 in
Visibility 10.0 miles
Clouds Few 12000 ft
Heat Index 72 °F
Dew Point 67 °F
Humidity 83%
Rainfall 0.00 in
Snow Depth Not available.
6:36 AM 8:50 PM
Waning Crescent, 16% visible
METAR KHYS 300415Z 08004KT 10SM FEW120 22/16 A3005 RMK AO1
Pressure 30.05 in
Visibility 10.0 miles
Clouds Few 12000 ft
Heat Index 72 °F
Dew Point 67 °F
Humidity 83%
Rainfall 0.00 in
Snow Depth Not available.
6:36 AM 8:50 PM
Waning Crescent, 16% visible
METAR KHYS 300415Z 08004KT 10SM FEW120 22/16 A3005 RMK AO1

10-Day Weather Forecast

Almanac

Astronomy

Jul. 29, 2016 Rise Set
Actual Time
Civil Twilight
Nautical Twilight
Astronomical Twilight
Moon
Length of Visible Light
Length of Day
Tomorrow will be .
, % of the Moon is Illuminated

Today's Extremes

State Highs State Lows

Community

WunderPhotos

Upload Photos

1,928,506 photos uploaded!

WunderBlog® & News

Nearby

Air Quality

  Air Quality AQ Index Pollutant
Not available.

Snow Depth

Station Depth Elevation

Earthquake Activity

City Distance Mag. Time & Date
Minimum magnitude displayed is 2.5.

Coastal Water Temperatures

Place Temperature

Stations

Nearby Weather Stations

Station Location Temp. Windchill Dew Point Humidity Wind Precip. Elev Updated Type
                   

Watches & Warnings

There are currently no watches in effect.